createdAt,value
2022-08-14T00:02:31.411Z,3.50
2022-08-14T00:05:00.264Z,3.70
2022-08-14T00:07:28.727Z,3.33
2022-08-14T00:10:49.168Z,3.90
2022-08-14T00:12:56.911Z,3.60
2022-08-14T00:15:37.700Z,4.00
2022-08-14T00:18:30.684Z,4.70
2022-08-14T00:21:10.909Z,4.73
2022-08-14T00:23:40.917Z,5.40
2022-08-14T00:26:22.990Z,6.20
2022-08-14T00:28:52.456Z,6.93
2022-08-14T00:31:34.767Z,7.20
2022-08-14T00:34:37.520Z,7.40
2022-08-14T00:36:53.731Z,7.97
2022-08-14T00:39:22.166Z,8.17
2022-08-14T00:41:50.658Z,7.90
2022-08-14T00:44:21.458Z,7.67
2022-08-14T00:47:01.100Z,7.83
2022-08-14T00:49:38.122Z,9.63
2022-08-14T00:52:11.469Z,10.87
2022-08-14T00:54:43.565Z,11.30
2022-08-14T00:57:14.004Z,11.80
2022-08-14T00:59:42.330Z,11.70
2022-08-14T01:02:11.704Z,13.30
2022-08-14T01:04:53.778Z,13.80
2022-08-14T01:07:23.550Z,14.47
2022-08-14T01:09:54.015Z,13.80
2022-08-14T01:12:27.250Z,11.80
2022-08-14T01:14:58.539Z,12.17
2022-08-14T01:17:50.722Z,12.17
2022-08-14T01:20:41.111Z,12.00
2022-08-14T01:23:16.047Z,12.27
2022-08-14T01:25:48.162Z,11.77
2022-08-14T01:28:34.103Z,11.43
2022-08-14T01:31:08.512Z,9.60
2022-08-14T01:34:00.057Z,9.57
2022-08-14T01:36:36.624Z,9.53
2022-08-14T01:39:12.557Z,9.33
2022-08-14T01:41:44.057Z,8.67
2022-08-14T01:44:33.417Z,7.90
2022-08-14T01:47:21.459Z,8.10
2022-08-14T01:50:01.412Z,7.60
2022-08-14T01:52:58.628Z,8.13
2022-08-14T01:55:30.515Z,7.63
2022-08-14T01:58:01.573Z,8.23
2022-08-14T02:00:53.982Z,8.17
2022-08-14T02:03:23.401Z,7.90
2022-08-14T02:05:51.813Z,8.13
2022-08-14T02:08:22.380Z,7.60
2022-08-14T02:11:22.246Z,8.47
2022-08-14T02:13:58.453Z,6.97
2022-08-14T02:16:30.638Z,6.83
2022-08-14T02:19:01.767Z,7.37
2022-08-14T02:21:34.954Z,8.10
2022-08-14T02:24:40.231Z,7.63
2022-08-14T02:28:22.182Z,7.90
2022-08-14T02:29:59.302Z,8.20
2022-08-14T02:32:36.077Z,7.63
2022-08-14T02:35:10.233Z,9.43
2022-08-14T02:37:48.440Z,8.63
2022-08-14T02:40:18.530Z,9.20
2022-08-14T02:42:54.013Z,9.10
2022-08-14T02:45:23.783Z,10.73
2022-08-14T02:47:57.256Z,11.13
2022-08-14T02:50:26.985Z,11.87
2022-08-14T02:53:02.859Z,11.20
2022-08-14T02:55:33.003Z,11.30
2022-08-14T02:58:05.757Z,9.90
2022-08-14T03:00:39.949Z,11.60
2022-08-14T03:03:09.083Z,9.63
2022-08-14T03:05:41.086Z,11.53
2022-08-14T03:08:15.072Z,11.57
2022-08-14T03:10:48.620Z,11.23
2022-08-14T03:13:21.706Z,10.70
2022-08-14T03:15:55.940Z,11.60
2022-08-14T03:18:32.017Z,11.43
2022-08-14T03:21:07.667Z,11.17
2022-08-14T03:23:38.436Z,11.53
2022-08-14T03:26:13.157Z,10.53
2022-08-14T03:28:51.498Z,10.03
2022-08-14T03:31:26.099Z,11.37
2022-08-14T03:33:59.890Z,11.90
2022-08-14T03:37:38.094Z,11.10
2022-08-14T03:39:22.930Z,12.10
2022-08-14T03:41:54.500Z,12.23
2022-08-14T03:45:26.232Z,13.33
2022-08-14T03:47:15.165Z,12.70
2022-08-14T03:49:50.185Z,12.43
2022-08-14T03:52:38.341Z,12.57
2022-08-14T03:55:09.233Z,11.67
2022-08-14T03:57:37.918Z,11.70
2022-08-14T04:00:40.282Z,10.83
2022-08-14T04:03:02.319Z,11.07
2022-08-14T04:05:42.583Z,12.80
2022-08-14T04:08:29.086Z,11.37
2022-08-14T04:11:01.157Z,11.63
2022-08-14T04:13:31.535Z,11.80
2022-08-14T04:16:05.366Z,12.30
2022-08-14T04:18:39.677Z,12.57
2022-08-14T04:21:10.831Z,11.40
2022-08-14T04:23:39.917Z,10.40
2022-08-14T04:26:14.651Z,10.33
2022-08-14T04:29:01.578Z,10.60
2022-08-14T04:32:57.282Z,10.00
2022-08-14T04:34:33.873Z,11.03
2022-08-14T04:37:22.328Z,10.47
2022-08-14T04:40:12.105Z,12.97
2022-08-14T04:42:58.507Z,10.97
2022-08-14T04:45:32.704Z,11.40
2022-08-14T04:48:38.912Z,10.83
2022-08-14T04:51:04.225Z,12.00
2022-08-14T04:53:35.242Z,12.17
2022-08-14T04:56:06.021Z,11.43
2022-08-14T04:58:57.504Z,11.27
2022-08-14T05:01:27.435Z,10.87
2022-08-14T05:03:57.432Z,11.87
2022-08-14T05:06:35.097Z,10.77
2022-08-14T05:09:14.042Z,11.93
2022-08-14T05:11:44.293Z,12.13
2022-08-14T05:14:16.670Z,11.50
2022-08-14T05:17:02.457Z,11.43
2022-08-14T05:19:33.033Z,13.57
2022-08-14T05:22:16.581Z,13.03
2022-08-14T05:24:48.686Z,13.97
2022-08-14T05:27:22.801Z,14.27
2022-08-14T05:29:56.931Z,13.70
2022-08-14T05:32:27.892Z,14.10
2022-08-14T05:34:59.808Z,14.40
2022-08-14T05:37:29.612Z,14.83
2022-08-14T05:40:00.940Z,14.33
2022-08-14T05:42:34.372Z,15.07
2022-08-14T05:45:05.145Z,14.20
2022-08-14T05:48:04.029Z,13.00
2022-08-14T05:50:56.875Z,14.00
2022-08-14T05:53:42.677Z,13.63
2022-08-14T05:56:33.485Z,14.30
2022-08-14T06:00:24.693Z,14.00
2022-08-14T08:11:19.786Z,11.13
2022-08-14T08:13:54.564Z,11.10
2022-08-14T08:16:24.732Z,12.70
2022-08-14T08:19:19.512Z,12.17
2022-08-14T08:22:48.369Z,11.00
2022-08-14T08:25:21.180Z,12.37
2022-08-14T08:27:59.934Z,14.97
2022-08-14T08:30:49.689Z,13.10
2022-08-14T08:33:32.106Z,15.87
2022-08-14T08:36:01.843Z,16.47
2022-08-14T08:39:17.064Z,17.60
2022-08-14T08:41:22.688Z,15.23
2022-08-14T08:43:52.684Z,18.27
2022-08-14T08:46:24.069Z,18.27
2022-08-14T08:51:30.476Z,18.60
2022-08-14T08:54:01.949Z,14.63
2022-08-14T08:56:40.059Z,17.20
2022-08-14T08:59:26.960Z,14.00
2022-08-14T09:01:58.786Z,15.43
2022-08-14T09:04:29.981Z,15.53
2022-08-14T09:07:10.074Z,15.83
2022-08-14T09:09:54.289Z,17.83
2022-08-14T09:12:32.146Z,18.47
2022-08-14T09:15:11.424Z,16.00
2022-08-14T09:17:42.290Z,17.93
2022-08-14T09:20:12.679Z,16.30
2022-08-14T09:22:48.191Z,19.97
2022-08-14T09:25:19.545Z,19.53
2022-08-14T09:27:48.622Z,17.80
2022-08-14T09:30:32.334Z,17.97
2022-08-14T09:33:36.066Z,16.53
2022-08-14T09:36:45.404Z,15.07
2022-08-14T09:39:28.427Z,17.53
2022-08-14T09:42:20.386Z,18.33
2022-08-14T09:45:11.734Z,15.63
2022-08-14T09:47:49.177Z,16.50
2022-08-14T09:50:25.970Z,16.67
2022-08-14T09:52:58.098Z,14.00
2022-08-14T09:55:36.887Z,15.70
2022-08-14T09:58:19.346Z,13.60
2022-08-14T10:00:50.197Z,14.20
2022-08-14T10:03:34.769Z,13.33
2022-08-14T10:06:11.970Z,16.33
2022-08-14T10:08:51.606Z,12.17
2022-08-14T10:11:23.950Z,11.93
2022-08-14T10:13:55.977Z,11.70
2022-08-14T10:16:32.927Z,12.63
2022-08-14T10:19:10.205Z,12.37
2022-08-14T10:23:13.380Z,12.83
2022-08-14T10:24:36.889Z,12.90
2022-08-14T10:27:16.367Z,14.20
2022-08-14T10:29:46.110Z,13.67
2022-08-14T10:32:18.200Z,11.73
2022-08-14T10:35:09.315Z,12.23
2022-08-14T10:37:49.951Z,11.03
2022-08-14T10:40:36.945Z,11.77
2022-08-14T10:43:25.863Z,10.90
2022-08-14T11:01:41.061Z,12.37
2022-08-14T11:04:25.855Z,12.67
2022-08-14T11:06:57.027Z,11.20
2022-08-14T11:09:26.252Z,12.57
2022-08-14T11:12:33.137Z,11.57
2022-08-14T11:14:59.441Z,10.50
2022-08-14T11:17:33.023Z,11.37
2022-08-14T11:20:05.201Z,10.00
2022-08-14T11:23:01.005Z,12.83
2022-08-14T11:25:43.204Z,10.03
2022-08-14T11:28:14.666Z,11.57
2022-08-14T11:30:54.228Z,10.47
2022-08-14T11:33:31.425Z,11.40
2022-08-14T11:36:13.793Z,10.40
2022-08-14T11:38:48.438Z,9.57
2022-08-14T11:41:18.389Z,9.07
2022-08-14T11:43:56.009Z,11.40
2022-08-14T11:46:30.574Z,8.47
2022-08-14T11:49:09.591Z,9.90
2022-08-14T11:51:54.570Z,10.83
2022-08-14T11:54:33.642Z,10.83
2022-08-14T11:57:05.439Z,10.10
2022-08-14T11:59:34.388Z,11.53
2022-08-14T12:03:00.906Z,10.03
2022-08-14T12:05:09.357Z,10.80
2022-08-14T12:07:49.105Z,10.10
2022-08-14T12:10:27.389Z,9.73
2022-08-14T12:13:14.583Z,10.03
2022-08-14T12:15:51.431Z,9.20
2022-08-14T12:18:32.444Z,8.20
2022-08-14T12:21:19.011Z,9.03
2022-08-14T12:24:01.872Z,10.40
2022-08-14T12:26:39.283Z,8.83
2022-08-14T12:29:11.258Z,9.03
2022-08-14T12:31:44.769Z,7.93
2022-08-14T12:34:20.185Z,8.37
2022-08-14T12:36:51.413Z,8.30
2022-08-14T12:39:23.024Z,6.77
2022-08-14T12:41:57.343Z,8.03
2022-08-14T12:44:33.414Z,6.70
2022-08-14T12:47:13.347Z,7.73
2022-08-14T12:49:54.339Z,8.00
2022-08-14T12:52:42.979Z,6.97
2022-08-14T12:55:32.493Z,8.00
2022-08-14T12:58:28.803Z,6.83
2022-08-14T13:01:20.593Z,7.53
2022-08-14T13:03:51.781Z,7.47
2022-08-14T13:06:27.384Z,7.33
2022-08-14T13:09:00.085Z,7.87
2022-08-14T13:11:41.082Z,8.13
2022-08-14T13:14:17.455Z,7.67
2022-08-14T13:16:50.683Z,8.27
2022-08-14T13:19:24.409Z,8.30
2022-08-14T13:22:47.672Z,7.80
2022-08-14T13:25:22.934Z,7.90
2022-08-14T13:27:55.063Z,7.83
2022-08-14T13:30:33.910Z,8.90
2022-08-14T13:33:05.726Z,9.03
2022-08-14T13:35:47.595Z,7.20
2022-08-14T13:38:23.099Z,7.40
2022-08-14T13:40:59.760Z,9.30
2022-08-14T13:43:36.966Z,8.63
2022-08-14T13:47:00.101Z,11.47
2022-08-14T13:49:32.469Z,10.90
2022-08-14T13:52:48.342Z,9.53
2022-08-14T13:55:06.948Z,9.40
2022-08-14T13:57:56.857Z,9.13
2022-08-14T14:04:20.271Z,9.60
2022-08-14T14:06:52.257Z,9.90
2022-08-14T14:09:32.630Z,10.03
2022-08-14T14:16:22.041Z,10.43
2022-08-14T14:19:04.471Z,9.80
2022-08-14T14:22:35.743Z,10.93
2022-08-14T14:25:22.579Z,10.03
2022-08-14T14:27:53.521Z,10.53
2022-08-14T14:30:46.390Z,9.17
2022-08-14T14:33:42.160Z,8.17
2022-08-14T14:36:04.993Z,10.00
2022-08-14T14:38:35.069Z,10.03
2022-08-14T14:41:05.695Z,9.20
2022-08-14T14:43:44.886Z,11.23
2022-08-14T14:46:15.750Z,9.80
2022-08-14T14:48:46.773Z,8.87
2022-08-14T14:51:24.225Z,9.20
2022-08-14T14:53:55.675Z,9.27
2022-08-14T14:56:49.721Z,8.73
2022-08-14T14:59:17.068Z,10.27
2022-08-14T15:01:50.254Z,9.87
2022-08-14T15:04:20.905Z,10.50
2022-08-14T15:06:52.643Z,11.33
2022-08-14T15:09:23.638Z,11.27
2022-08-14T15:11:52.418Z,9.53
2022-08-14T15:14:56.912Z,9.57
2022-08-14T15:17:11.909Z,9.00
2022-08-14T15:19:42.083Z,10.83
2022-08-14T15:22:51.974Z,11.17
2022-08-14T15:25:22.530Z,10.90
2022-08-14T15:27:54.577Z,11.27
2022-08-14T15:30:32.326Z,11.10
2022-08-14T15:33:01.338Z,11.23
2022-08-14T15:35:33.973Z,9.20
2022-08-14T15:38:07.953Z,10.17
2022-08-14T15:40:41.230Z,9.13
2022-08-14T15:43:12.937Z,10.00
2022-08-14T15:45:43.313Z,9.80
2022-08-14T15:48:22.132Z,9.40
2022-08-14T15:50:51.876Z,9.30
2022-08-14T15:53:22.338Z,8.20
2022-08-14T15:55:53.045Z,9.03
2022-08-14T15:58:22.310Z,9.40
2022-08-14T16:01:10.354Z,9.63
2022-08-14T16:03:42.393Z,7.30
2022-08-14T16:06:18.021Z,9.37
2022-08-14T16:08:50.150Z,8.30
2022-08-14T16:11:26.534Z,9.20
2022-08-14T16:13:57.551Z,11.73
2022-08-14T16:16:50.547Z,10.43
2022-08-14T16:19:21.209Z,8.97
2022-08-14T16:22:59.190Z,10.57
2022-08-14T16:25:19.476Z,8.47
2022-08-14T16:28:03.550Z,9.27
2022-08-14T16:30:36.277Z,8.60
2022-08-14T16:33:07.315Z,7.53
2022-08-14T16:35:43.501Z,7.40
2022-08-14T16:38:46.194Z,7.43
2022-08-14T16:41:26.393Z,7.93
2022-08-14T16:43:59.257Z,6.50
2022-08-14T16:46:31.638Z,7.20
2022-08-14T16:49:03.105Z,6.70
2022-08-14T16:51:36.426Z,6.80
2022-08-14T16:54:10.444Z,7.87
2022-08-14T16:57:17.046Z,7.77
2022-08-14T16:59:57.489Z,8.70
2022-08-14T17:02:35.630Z,9.40
2022-08-14T17:05:22.432Z,8.53
2022-08-14T17:08:31.566Z,8.90
2022-08-14T17:11:10.848Z,8.33
2022-08-14T17:13:59.628Z,8.00
2022-08-14T17:16:37.090Z,8.50
2022-08-14T17:19:13.722Z,7.17
2022-08-14T17:22:35.045Z,6.73
2022-08-14T17:25:05.768Z,6.90
2022-08-14T17:27:34.281Z,7.37
2022-08-14T17:30:03.196Z,6.70
2022-08-14T17:32:56.765Z,7.10
2022-08-14T17:35:38.892Z,6.73
2022-08-14T17:38:39.162Z,7.00
2022-08-14T17:41:23.405Z,7.50
2022-08-14T17:46:43.720Z,7.00
2022-08-14T17:49:17.996Z,6.70
2022-08-14T17:52:03.769Z,6.10
2022-08-14T17:54:38.913Z,6.40
2022-08-14T17:57:17.217Z,6.60
2022-08-14T17:59:48.389Z,6.57
2022-08-14T18:02:19.219Z,6.27
2022-08-14T18:04:51.113Z,7.20
2022-08-14T18:07:59.969Z,7.30
2022-08-14T18:10:55.614Z,7.77
2022-08-14T18:13:02.836Z,6.50
2022-08-14T18:15:36.987Z,7.50
2022-08-14T18:18:08.856Z,8.27
2022-08-14T18:21:40.371Z,7.90
2022-08-14T18:23:28.352Z,8.07
2022-08-14T18:26:00.193Z,8.40
2022-08-14T18:28:47.857Z,8.40
2022-08-14T18:31:44.114Z,7.63
2022-08-14T18:34:50.776Z,8.13
2022-08-14T18:37:21.767Z,8.77
2022-08-14T18:40:02.963Z,8.43
2022-08-14T18:42:45.492Z,10.13
2022-08-14T18:45:19.131Z,9.37
2022-08-14T18:48:33.561Z,8.07
2022-08-14T18:51:45.833Z,9.03
2022-08-14T18:54:32.982Z,8.20
2022-08-14T18:57:05.406Z,8.33
2022-08-14T18:59:37.081Z,8.53
2022-08-14T19:02:44.386Z,10.13
2022-08-14T19:05:14.456Z,9.10
2022-08-14T19:07:43.508Z,8.73
2022-08-14T19:10:31.871Z,8.50
2022-08-14T19:13:11.874Z,8.67
2022-08-14T19:15:43.062Z,7.57
2022-08-14T19:18:38.415Z,9.10
2022-08-14T19:21:13.210Z,8.53
2022-08-14T19:24:29.184Z,8.77
2022-08-14T19:27:19.201Z,8.27
2022-08-14T19:29:52.122Z,8.60
2022-08-14T19:32:40.903Z,7.90
2022-08-14T19:35:55.164Z,7.63
2022-08-14T19:38:53.830Z,7.93
2022-08-14T19:41:29.445Z,7.77
2022-08-14T19:44:11.635Z,7.10
2022-08-14T19:47:00.366Z,7.03
2022-08-14T19:50:24.465Z,7.17
2022-08-14T19:52:29.671Z,8.23
2022-08-14T19:55:00.251Z,7.87
2022-08-14T19:57:32.447Z,7.80
2022-08-14T20:00:28.255Z,7.80
2022-08-14T20:03:11.256Z,7.90
2022-08-14T20:05:45.390Z,7.60
2022-08-14T20:09:05.155Z,7.83
2022-08-14T20:11:43.520Z,7.67
2022-08-14T20:14:09.369Z,7.57
2022-08-14T20:16:40.499Z,7.30
2022-08-14T20:19:18.526Z,8.13
2022-08-14T20:22:04.143Z,8.20
2022-08-14T20:24:43.953Z,8.27
2022-08-14T20:27:35.030Z,8.40
2022-08-14T20:33:07.867Z,9.43
2022-08-14T20:35:44.254Z,9.10
2022-08-14T20:38:30.348Z,9.23
2022-08-14T20:41:06.719Z,8.50
2022-08-14T20:43:56.793Z,9.90
2022-08-14T20:46:31.711Z,10.93
2022-08-14T20:49:03.155Z,10.70
2022-08-14T20:51:37.311Z,11.10
2022-08-14T20:54:09.097Z,12.83
2022-08-14T20:56:40.755Z,11.23
2022-08-14T20:59:22.833Z,12.23
2022-08-14T21:01:55.397Z,11.20
2022-08-14T21:04:30.554Z,10.50
2022-08-14T21:07:25.423Z,10.30
2022-08-14T21:10:35.915Z,12.70
2022-08-14T21:13:26.807Z,12.80
2022-08-14T21:15:43.695Z,11.97
2022-08-14T21:18:28.910Z,11.20
2022-08-14T21:20:59.945Z,11.50
2022-08-14T21:23:32.521Z,14.80
2022-08-14T21:26:03.660Z,13.63
2022-08-14T21:28:35.831Z,13.50
2022-08-14T21:31:05.569Z,14.80
2022-08-14T21:33:36.339Z,14.10
2022-08-14T21:36:08.724Z,15.90
2022-08-14T21:38:42.275Z,14.87
2022-08-14T21:41:43.468Z,13.10
2022-08-14T21:44:17.618Z,13.70
2022-08-14T21:46:53.666Z,13.43
2022-08-14T21:49:34.001Z,15.67
2022-08-14T21:52:51.113Z,13.43
2022-08-14T21:55:00.636Z,14.67
2022-08-14T21:57:56.219Z,15.33
2022-08-14T22:00:34.656Z,14.50
2022-08-14T22:03:08.876Z,13.67
2022-08-14T22:05:41.732Z,15.20
2022-08-14T22:08:13.941Z,16.40
2022-08-14T22:10:44.807Z,14.07
2022-08-14T22:13:16.899Z,15.17
2022-08-14T22:15:49.515Z,14.47
2022-08-14T22:18:21.021Z,17.67
2022-08-14T22:20:54.032Z,16.87
2022-08-14T22:23:26.106Z,16.10
2022-08-14T22:25:55.218Z,18.57
2022-08-14T22:28:27.215Z,18.20
2022-08-14T22:31:02.603Z,16.67
2022-08-14T22:33:32.247Z,19.53
2022-08-14T22:36:26.211Z,16.80
2022-08-14T22:38:55.064Z,17.40
2022-08-14T22:41:27.682Z,15.70
2022-08-14T22:44:06.558Z,17.37
2022-08-14T22:46:35.249Z,16.37
2022-08-14T22:49:16.274Z,14.93
2022-08-14T22:51:54.904Z,16.37
2022-08-14T22:54:53.041Z,16.57
2022-08-14T22:57:13.664Z,15.40
2022-08-14T22:59:43.128Z,16.37
2022-08-14T23:02:15.722Z,15.47
2022-08-14T23:04:54.061Z,15.57
2022-08-14T23:07:25.241Z,15.47
2022-08-14T23:10:33.873Z,16.43
2022-08-14T23:13:03.598Z,15.90
2022-08-14T23:15:33.792Z,15.30
2022-08-14T23:18:03.237Z,16.07
2022-08-14T23:20:31.891Z,16.20
2022-08-14T23:23:01.664Z,16.17
2022-08-14T23:25:57.124Z,16.00
2022-08-14T23:28:33.520Z,17.30
2022-08-14T23:31:34.985Z,16.37
2022-08-14T23:34:07.055Z,17.53
2022-08-14T23:36:37.506Z,16.63
2022-08-14T23:39:30.303Z,17.13
2022-08-14T23:42:02.347Z,17.00
2022-08-14T23:44:35.107Z,16.60
2022-08-14T23:47:11.832Z,16.00
2022-08-14T23:50:00.677Z,15.67
2022-08-14T23:52:55.721Z,19.00
2022-08-14T23:55:26.990Z,18.90
2022-08-14T23:57:57.990Z,16.73
